Paganini — V2CL8 — position and weather

sailwx.info

Track history (hours):
 
Tides and Currents Weather Stations Pressure Air Temp Water Temp Dewpoint Dewpoint Depression Visibility Wind Speed Wind Dir Waves Ship Positions

Paganini

Last reported at 2016-Sep-29 16:27 UTC. Time now 2016-Sep-30 08:22 UTC.
Position N 54°37' W 005°54'.

Length 90 m; draft 3.8 m.

Type: Cargo ship. MMSI: 305040000.

Date/timePositionNaut miles runAvg speedWind from/ knotsBaromVisibWave heightAir tempDewpointWater temp
2016-Sep-29 16:27N 54°37' W 005°54'0 0.2
2016-Sep-29 15:33N 54°37' W 005°54'6 5.8
2016-Sep-29 14:33N 54°42' W 005°47'9 9.1
2016-Sep-29 13:33N 54°43' W 005°31'104 8.0
2016-Sep-29 00:33N 53°25' W 003°36'24 7.9
2016-Sep-28 21:33N 53°19' W 002°57'7 3.4
2016-Sep-28 19:33N 53°19' W 002°46'1 0.3
2016-Sep-28 16:29N 53°20' W 002°45'0 0.0
2016-Sep-28 15:29N 53°20' W 002°45'0 0.0
2016-Sep-28 12:32N 53°20' W 002°45'0 0.0
2016-Sep-28 08:32N 53°20' W 002°45'0 0.0
2016-Sep-28 03:29N 53°20' W 002°45'0 0.0
2016-Sep-28 02:32N 53°20' W 002°45'0 0.0
2016-Sep-28 01:29N 53°20' W 002°45'0 0.0
2016-Sep-27 23:32N 53°20' W 002°45'0 0.0
2016-Sep-27 19:32N 53°20' W 002°45'0 0.0
2016-Sep-27 14:32N 53°20' W 002°45'0 0.0
2016-Sep-27 13:32N 53°20' W 002°45'2 0.7
2016-Sep-27 10:33N 53°18' W 002°46'195 5.7
2016-Sep-26 00:29N 50°40' W 005°52'160 8.0
2016-Sep-25 04:33N 48°01' W 005°29'30 7.4
2016-Sep-25 00:33N 47°32' W 005°18'59 8.3
2016-Sep-24 17:24N 46°35' W 004°54'9 8.8
2016-Sep-24 16:21N 46°26' W 004°51'117 9.2
2016-Sep-24 03:31N 44°33' W 004°08'19 9.0
2016-Sep-24 01:23N 44°14' W 004°01'  
2016-Sep-20 14:24N 43°43' W 005°14'7 8.3
2016-Sep-20 13:32N 43°43' W 005°24'29 8.8
2016-Sep-20 10:12N 43°46' W 006°04'66 8.7
2016-Sep-20 02:34N 43°53' W 007°35'  
Track history (hours):
 
Tides and Currents Weather Stations Pressure Air Temp Water Temp Dewpoint Dewpoint Depression Visibility Wind Speed Wind Dir Waves Ship Positions

Paganini

Last reported at 2016-Sep-29 16:27 UTC. Time now 2016-Sep-30 08:22 UTC.
Position N 54°37' W 005°54'.

Length 90 m; draft 3.8 m.

Type: Cargo ship. MMSI: 305040000.

Date/timePositionNaut miles runAvg speedWind from/ knotsBaromVisibWave heightAir tempDewpointWater temp
2016-Sep-29 16:27N 54°37' W 005°54'0 0.2
2016-Sep-29 15:33N 54°37' W 005°54'6 5.8
2016-Sep-29 14:33N 54°42' W 005°47'9 9.1
2016-Sep-29 13:33N 54°43' W 005°31'104 8.0
2016-Sep-29 00:33N 53°25' W 003°36'24 7.9
2016-Sep-28 21:33N 53°19' W 002°57'7 3.4
2016-Sep-28 19:33N 53°19' W 002°46'1 0.3
2016-Sep-28 16:29N 53°20' W 002°45'0 0.0
2016-Sep-28 15:29N 53°20' W 002°45'0 0.0
2016-Sep-28 12:32N 53°20' W 002°45'0 0.0
2016-Sep-28 08:32N 53°20' W 002°45'0 0.0
2016-Sep-28 03:29N 53°20' W 002°45'0 0.0
2016-Sep-28 02:32N 53°20' W 002°45'0 0.0
2016-Sep-28 01:29N 53°20' W 002°45'0 0.0
2016-Sep-27 23:32N 53°20' W 002°45'0 0.0
2016-Sep-27 19:32N 53°20' W 002°45'0 0.0
2016-Sep-27 14:32N 53°20' W 002°45'0 0.0
2016-Sep-27 13:32N 53°20' W 002°45'2 0.7
2016-Sep-27 10:33N 53°18' W 002°46'195 5.7
2016-Sep-26 00:29N 50°40' W 005°52'160 8.0
2016-Sep-25 04:33N 48°01' W 005°29'30 7.4
2016-Sep-25 00:33N 47°32' W 005°18'59 8.3
2016-Sep-24 17:24N 46°35' W 004°54'9 8.8
2016-Sep-24 16:21N 46°26' W 004°51'117 9.2
2016-Sep-24 03:31N 44°33' W 004°08'19 9.0
2016-Sep-24 01:23N 44°14' W 004°01'  
2016-Sep-20 14:24N 43°43' W 005°14'7 8.3
2016-Sep-20 13:32N 43°43' W 005°24'29 8.8
2016-Sep-20 10:12N 43°46' W 006°04'66 8.7
2016-Sep-20 02:34N 43°53' W 007°35'  

Dump ship's entire track history